createdAt,value
2022-12-15T00:00:05.549Z,11.40
2022-12-15T00:02:51.760Z,11.30
2022-12-15T00:05:38.046Z,11.30
2022-12-15T00:08:27.004Z,11.30
2022-12-15T00:11:12.510Z,11.30
2022-12-15T00:13:58.080Z,11.30
2022-12-15T00:16:45.168Z,11.30
2022-12-15T00:19:30.620Z,11.30
2022-12-15T00:22:16.220Z,11.30
2022-12-15T00:25:01.808Z,11.40
2022-12-15T00:27:47.364Z,11.40
2022-12-15T00:30:33.439Z,11.40
2022-12-15T00:33:25.133Z,11.30
2022-12-15T00:36:10.599Z,11.40
2022-12-15T00:38:43.368Z,11.40
2022-12-15T00:41:12.368Z,11.40
2022-12-15T00:43:40.731Z,11.40
2022-12-15T00:46:26.836Z,11.40
2022-12-15T00:48:56.706Z,11.40
2022-12-15T00:51:42.772Z,11.40
2022-12-15T00:54:28.702Z,11.40
2022-12-15T00:57:14.791Z,11.40
2022-12-15T01:00:00.443Z,11.40
2022-12-15T01:02:46.146Z,11.40
2022-12-15T01:05:33.477Z,11.40
2022-12-15T01:08:21.365Z,11.50
2022-12-15T01:11:07.396Z,11.40
2022-12-15T01:13:53.212Z,11.50
2022-12-15T01:16:38.774Z,11.50
2022-12-15T01:19:26.483Z,11.60
2022-12-15T01:21:56.320Z,11.60
2022-12-15T01:24:24.796Z,11.60
2022-12-15T01:26:53.255Z,11.60
2022-12-15T01:29:21.659Z,11.60
2022-12-15T01:31:50.356Z,11.60
2022-12-15T01:34:23.062Z,11.60
2022-12-15T01:36:51.485Z,11.60
2022-12-15T01:39:21.237Z,11.60
2022-12-15T01:41:48.645Z,11.60
2022-12-15T01:44:20.628Z,11.50
2022-12-15T01:46:50.399Z,11.60
2022-12-15T01:49:22.058Z,11.50
2022-12-15T01:51:52.433Z,11.50
2022-12-15T01:54:24.135Z,11.50
2022-12-15T01:56:55.927Z,11.50
2022-12-15T01:59:28.208Z,11.50
2022-12-15T02:01:56.673Z,11.50
2022-12-15T02:04:25.775Z,11.50
2022-12-15T02:06:54.330Z,11.50
2022-12-15T02:09:25.215Z,11.60
2022-12-15T02:11:58.426Z,11.50
2022-12-15T02:14:33.198Z,11.50
2022-12-15T02:17:16.550Z,11.40
2022-12-15T02:19:59.768Z,11.40
2022-12-15T02:22:33.237Z,11.30
2022-12-15T02:25:19.933Z,11.20
2022-12-15T02:27:52.005Z,11.20
2022-12-15T02:30:23.827Z,11.20
2022-12-15T02:32:59.613Z,11.30
2022-12-15T02:35:32.062Z,11.30
2022-12-15T02:38:00.469Z,11.40
2022-12-15T02:40:28.983Z,11.40
2022-12-15T02:42:59.379Z,11.40
2022-12-15T02:45:32.868Z,11.40
2022-12-15T02:48:06.193Z,11.40
2022-12-15T02:50:47.212Z,11.30
2022-12-15T02:53:25.292Z,11.30
2022-12-15T02:55:59.019Z,11.30
2022-12-15T02:58:31.069Z,11.20
2022-12-15T03:01:02.423Z,11.20
2022-12-15T03:03:32.440Z,11.20
2022-12-15T03:06:02.380Z,11.20
2022-12-15T03:08:30.802Z,11.20
2022-12-15T03:10:59.875Z,11.10
2022-12-15T03:13:28.575Z,11.10
2022-12-15T03:15:58.320Z,11.10
2022-12-15T03:18:28.360Z,11.30
2022-12-15T03:20:56.716Z,11.30
2022-12-15T03:23:25.135Z,11.30
2022-12-15T03:25:53.507Z,11.30
2022-12-15T03:28:21.948Z,11.40
2022-12-15T03:30:50.869Z,11.50
2022-12-15T03:33:19.480Z,11.50
2022-12-15T03:35:49.863Z,11.50
2022-12-15T03:38:18.284Z,11.60
2022-12-15T03:40:46.894Z,11.50
2022-12-15T03:43:15.347Z,11.50
2022-12-15T03:45:43.913Z,11.50
2022-12-15T03:48:12.328Z,11.50
2022-12-15T03:50:40.874Z,11.50
2022-12-15T03:53:10.651Z,11.50
2022-12-15T03:55:39.081Z,11.50
2022-12-15T03:58:07.607Z,11.50
2022-12-15T04:00:36.027Z,11.60
2022-12-15T04:03:04.528Z,11.60
2022-12-15T04:05:34.186Z,11.60
2022-12-15T04:08:02.906Z,11.60
2022-12-15T04:10:34.813Z,11.60
2022-12-15T04:13:04.664Z,11.50
2022-12-15T04:15:33.044Z,11.50
2022-12-15T04:18:02.400Z,11.50
2022-12-15T04:20:30.859Z,11.50
2022-12-15T04:22:59.488Z,11.50
2022-12-15T04:25:45.575Z,11.50
2022-12-15T04:28:32.760Z,11.50
2022-12-15T04:31:21.060Z,11.50
2022-12-15T04:34:08.107Z,11.60
2022-12-15T04:36:54.598Z,11.60
2022-12-15T04:39:40.509Z,11.60
2022-12-15T04:42:26.525Z,11.60
2022-12-15T04:45:20.359Z,11.50
2022-12-15T04:48:07.478Z,11.40
2022-12-15T04:50:53.408Z,11.30
2022-12-15T04:53:39.624Z,11.30
2022-12-15T04:56:28.152Z,11.40
2022-12-15T04:59:14.109Z,11.50
2022-12-15T05:02:01.359Z,11.50
2022-12-15T05:04:47.129Z,11.50
2022-12-15T05:07:33.083Z,11.50
2022-12-15T05:10:18.802Z,11.60
2022-12-15T05:13:04.912Z,11.60
2022-12-15T05:15:50.851Z,11.60
2022-12-15T05:18:37.989Z,11.70
2022-12-15T05:21:23.825Z,11.60
2022-12-15T05:24:09.973Z,11.60
2022-12-15T05:26:55.966Z,11.60
2022-12-15T05:29:41.954Z,11.60
2022-12-15T05:32:10.375Z,11.60
2022-12-15T05:34:40.128Z,11.50
2022-12-15T05:37:08.528Z,11.60
2022-12-15T05:39:36.879Z,11.60
2022-12-15T05:42:05.439Z,11.70
2022-12-15T05:44:34.204Z,11.70
2022-12-15T05:47:02.615Z,11.70
2022-12-15T05:49:31.013Z,11.60
2022-12-15T05:52:00.802Z,11.50
2022-12-15T05:54:29.216Z,11.50
2022-12-15T05:56:57.641Z,11.50
2022-12-15T05:59:26.045Z,11.40
2022-12-15T06:01:54.548Z,11.30
2022-12-15T06:04:22.992Z,11.30
2022-12-15T06:06:51.479Z,11.30
2022-12-15T06:09:21.256Z,11.20
2022-12-15T06:11:49.649Z,11.30
2022-12-15T06:14:18.098Z,11.30
2022-12-15T06:16:51.052Z,11.40
2022-12-15T06:19:20.348Z,11.50
2022-12-15T06:21:49.056Z,11.50
2022-12-15T06:24:17.545Z,11.50
2022-12-15T06:26:49.629Z,11.40
2022-12-15T06:29:18.606Z,11.40
2022-12-15T06:31:47.105Z,11.40
2022-12-15T06:34:16.449Z,11.40
2022-12-15T06:36:45.169Z,11.30
2022-12-15T06:39:14.650Z,11.30
2022-12-15T06:41:43.101Z,11.30
2022-12-15T06:44:15.220Z,11.40
2022-12-15T06:46:43.738Z,11.40
2022-12-15T06:49:12.196Z,11.50
2022-12-15T06:51:41.471Z,11.60
2022-12-15T06:54:11.262Z,11.50
2022-12-15T06:56:39.980Z,11.50
2022-12-15T06:59:08.827Z,11.40
2022-12-15T07:01:38.811Z,11.40
2022-12-15T07:04:07.607Z,11.50
2022-12-15T07:06:37.580Z,11.40
2022-12-15T07:09:07.999Z,11.40
2022-12-15T07:11:36.419Z,11.50
2022-12-15T07:14:04.891Z,11.50
2022-12-15T07:16:33.509Z,11.50
2022-12-15T07:19:03.613Z,11.50
2022-12-15T07:21:32.111Z,11.60
2022-12-15T07:24:01.773Z,11.70
2022-12-15T07:26:30.696Z,11.70
2022-12-15T07:28:59.157Z,11.70
2022-12-15T07:31:27.631Z,11.60
2022-12-15T07:33:56.121Z,11.70
2022-12-15T07:36:26.543Z,11.60
2022-12-15T07:38:58.290Z,11.70
2022-12-15T07:41:26.748Z,11.70
2022-12-15T07:43:55.277Z,11.70
2022-12-15T07:46:24.081Z,11.80
2022-12-15T07:48:53.466Z,11.80
2022-12-15T07:51:23.302Z,11.80
2022-12-15T07:53:53.269Z,11.80
2022-12-15T07:56:21.873Z,11.80
2022-12-15T07:58:50.292Z,11.80
2022-12-15T08:01:19.182Z,11.80
2022-12-15T08:03:48.372Z,11.80
2022-12-15T08:06:17.009Z,11.80
2022-12-15T08:08:49.931Z,11.80
2022-12-15T08:11:22.129Z,11.80
2022-12-15T08:14:11.810Z,11.90
2022-12-15T08:16:39.692Z,11.90
2022-12-15T08:19:11.453Z,12.00
2022-12-15T08:21:40.179Z,12.20
2022-12-15T08:24:09.074Z,12.30
2022-12-15T08:26:39.484Z,12.20
2022-12-15T08:29:48.776Z,12.20
2022-12-15T08:31:57.567Z,12.20
2022-12-15T08:34:26.050Z,12.30
2022-12-15T08:36:55.729Z,12.40
2022-12-15T08:39:24.158Z,12.40
2022-12-15T08:41:53.985Z,12.40
2022-12-15T08:44:22.835Z,12.40
2022-12-15T08:46:51.352Z,12.60
2022-12-15T08:49:22.069Z,12.60
2022-12-15T08:51:51.420Z,12.70
2022-12-15T08:54:20.666Z,12.80
2022-12-15T08:56:49.391Z,12.80
2022-12-15T08:59:19.643Z,12.80
2022-12-15T09:01:48.410Z,12.80
2022-12-15T09:04:17.020Z,12.80
2022-12-15T09:06:50.589Z,12.80
2022-12-15T09:09:19.705Z,12.80
2022-12-15T09:11:48.132Z,12.80
2022-12-15T09:14:16.541Z,12.80
2022-12-15T09:16:46.362Z,12.80
2022-12-15T09:19:19.229Z,12.80
2022-12-15T09:21:48.370Z,12.80
2022-12-15T09:24:26.139Z,12.80
2022-12-15T09:27:00.844Z,12.90
2022-12-15T09:29:29.253Z,12.90
2022-12-15T09:31:59.717Z,13.00
2022-12-15T09:34:28.191Z,13.00
2022-12-15T09:36:56.871Z,13.00
2022-12-15T09:39:25.315Z,13.10
2022-12-15T09:41:55.030Z,13.10
2022-12-15T09:44:25.704Z,13.10
2022-12-15T09:47:05.819Z,13.20
2022-12-15T09:49:49.131Z,13.10
2022-12-15T09:52:18.324Z,13.20
2022-12-15T09:54:47.427Z,13.10
2022-12-15T09:57:20.382Z,13.10
2022-12-15T09:59:56.000Z,13.10
2022-12-15T10:02:33.111Z,13.10
2022-12-15T10:05:06.632Z,13.10
2022-12-15T10:07:39.657Z,13.10
2022-12-15T10:10:12.709Z,13.10
2022-12-15T10:15:35.130Z,13.20
2022-12-15T10:18:08.102Z,13.30
2022-12-15T10:20:36.634Z,13.40
2022-12-15T10:23:15.501Z,13.40
2022-12-15T10:25:47.659Z,13.40
2022-12-15T10:28:27.235Z,13.30
2022-12-15T10:30:59.273Z,13.40
2022-12-15T10:33:33.119Z,13.50
2022-12-15T10:36:01.983Z,13.50
2022-12-15T10:38:34.858Z,13.40
2022-12-15T10:41:04.476Z,13.40
2022-12-15T10:43:36.577Z,13.30
2022-12-15T10:46:08.366Z,13.40
2022-12-15T10:48:38.512Z,13.40
2022-12-15T10:51:24.548Z,13.30
2022-12-15T10:53:54.041Z,13.30
2022-12-15T10:56:32.460Z,13.50
2022-12-15T10:59:02.898Z,13.50
2022-12-15T11:01:32.213Z,13.50
2022-12-15T11:04:02.235Z,13.40
2022-12-15T11:06:32.389Z,13.40
2022-12-15T11:09:09.348Z,13.30
2022-12-15T11:12:04.440Z,13.30
2022-12-15T11:14:42.445Z,13.40
2022-12-15T11:17:10.852Z,13.30
2022-12-15T11:19:45.099Z,13.40
2022-12-15T11:22:17.683Z,13.50
2022-12-15T11:24:48.970Z,13.50
2022-12-15T11:27:22.225Z,13.30
2022-12-15T11:29:56.560Z,13.30
2022-12-15T11:32:27.191Z,13.30
2022-12-15T11:34:57.225Z,13.40
2022-12-15T11:37:36.678Z,13.30
2022-12-15T11:40:20.325Z,13.40
2022-12-15T11:42:56.612Z,13.30
2022-12-15T11:45:26.899Z,13.30
2022-12-15T11:47:59.668Z,13.30
2022-12-15T11:50:31.882Z,13.30
2022-12-15T11:53:04.585Z,13.30
2022-12-15T11:55:41.710Z,13.40
2022-12-15T11:58:19.527Z,13.40
2022-12-15T12:00:52.900Z,13.50
2022-12-15T12:03:26.437Z,13.50
2022-12-15T12:06:12.699Z,13.70
2022-12-15T12:09:05.063Z,13.70
2022-12-15T12:11:37.636Z,13.80
2022-12-15T12:14:15.798Z,13.90
2022-12-15T12:16:48.702Z,13.90
2022-12-15T12:19:19.319Z,14.10
2022-12-15T12:21:50.877Z,14.30
2022-12-15T12:24:22.309Z,14.40
2022-12-15T12:26:56.065Z,14.40
2022-12-15T12:29:26.844Z,14.30
2022-12-15T12:32:05.096Z,14.30
2022-12-15T12:34:36.369Z,14.30
2022-12-15T12:37:11.097Z,14.30
2022-12-15T12:39:39.765Z,14.50
2022-12-15T12:42:13.329Z,14.60
2022-12-15T12:44:41.787Z,14.50
2022-12-15T12:47:12.769Z,14.60
2022-12-15T12:49:44.885Z,14.60
2022-12-15T12:52:20.286Z,14.60
2022-12-15T12:54:52.531Z,14.60
2022-12-15T12:57:34.408Z,14.60
2022-12-15T13:00:04.389Z,14.50
2022-12-15T13:03:02.736Z,14.60
2022-12-15T13:05:32.448Z,14.60
2022-12-15T13:08:15.714Z,14.60
2022-12-15T13:10:44.727Z,14.60
2022-12-15T13:13:51.028Z,14.60
2022-12-15T13:16:25.615Z,14.50
2022-12-15T13:19:05.314Z,14.60
2022-12-15T13:21:53.384Z,14.70
2022-12-15T13:24:27.153Z,14.60
2022-12-15T13:27:04.856Z,14.60
2022-12-15T13:29:36.064Z,14.60
2022-12-15T13:32:05.024Z,14.50
2022-12-15T13:34:38.763Z,14.60
2022-12-15T13:37:08.288Z,14.60
2022-12-15T13:39:57.813Z,14.60
2022-12-15T13:42:37.270Z,14.60
2022-12-15T13:45:23.510Z,14.50
2022-12-15T13:47:53.875Z,14.40
2022-12-15T13:50:29.954Z,14.30
2022-12-15T13:53:18.368Z,14.40
2022-12-15T13:55:55.120Z,14.30
2022-12-15T13:58:24.360Z,14.30
2022-12-15T14:00:54.904Z,14.40
2022-12-15T14:03:24.087Z,14.60
2022-12-15T14:05:53.560Z,14.50
2022-12-15T14:08:22.597Z,14.50
2022-12-15T14:10:52.319Z,14.40
2022-12-15T14:13:22.268Z,14.30
2022-12-15T14:15:53.608Z,14.40
2022-12-15T14:18:31.708Z,14.50
2022-12-15T14:21:01.258Z,14.50
2022-12-15T14:23:31.088Z,14.50
2022-12-15T14:26:04.725Z,14.50
2022-12-15T14:28:33.962Z,14.60
2022-12-15T14:31:04.264Z,14.80
2022-12-15T14:33:36.770Z,14.80
2022-12-15T14:36:08.089Z,14.60
2022-12-15T14:38:42.278Z,14.70
2022-12-15T14:41:12.883Z,14.70
2022-12-15T14:43:41.529Z,14.70
2022-12-15T14:46:11.114Z,14.80
2022-12-15T14:48:44.288Z,15.10
2022-12-15T14:51:14.351Z,15.10
2022-12-15T14:53:43.941Z,15.10
2022-12-15T14:56:31.231Z,15.10
2022-12-15T14:59:03.923Z,15.10
2022-12-15T15:01:35.855Z,15.20
2022-12-15T15:03:04.236Z,13.20
2022-12-15T15:04:07.047Z,15.10
2022-12-15T15:06:39.276Z,15.10
2022-12-15T15:09:19.944Z,15.00
2022-12-15T15:11:49.470Z,15.00
2022-12-15T15:14:20.254Z,15.00
2022-12-15T15:16:59.636Z,15.00
2022-12-15T15:19:30.644Z,14.90
2022-12-15T15:22:00.803Z,14.90
2022-12-15T15:24:34.242Z,14.90
2022-12-15T15:27:21.210Z,14.80
2022-12-15T15:29:49.575Z,14.80
2022-12-15T15:32:18.767Z,14.80
2022-12-15T15:34:48.594Z,14.80
2022-12-15T15:37:18.449Z,14.70
2022-12-15T15:39:47.129Z,14.70
2022-12-15T15:42:15.501Z,14.70
2022-12-15T15:44:43.964Z,14.70
2022-12-15T15:47:17.842Z,14.60
2022-12-15T15:49:46.552Z,14.50
2022-12-15T15:52:16.628Z,14.40
2022-12-15T15:54:45.837Z,14.40
2022-12-15T15:57:15.512Z,14.40
2022-12-15T15:59:44.770Z,14.40
2022-12-15T16:02:14.493Z,14.40
2022-12-15T16:04:43.525Z,14.40
2022-12-15T16:07:17.629Z,14.30
2022-12-15T16:09:46.088Z,14.30
2022-12-15T16:12:21.766Z,14.30
2022-12-15T16:14:50.197Z,14.30
2022-12-15T16:17:18.622Z,14.30
2022-12-15T16:19:47.006Z,14.30
2022-12-15T16:22:18.053Z,14.20
2022-12-15T16:24:47.214Z,14.20
2022-12-15T16:27:16.581Z,14.20
2022-12-15T16:29:45.123Z,14.10
2022-12-15T16:32:13.558Z,14.10
2022-12-15T16:34:42.703Z,14.10
2022-12-15T16:37:15.649Z,14.00
2022-12-15T16:39:45.501Z,14.00
2022-12-15T16:42:13.954Z,13.90
2022-12-15T16:44:42.340Z,13.90
2022-12-15T16:47:11.033Z,13.90
2022-12-15T16:49:40.461Z,13.90
2022-12-15T16:52:13.190Z,13.90
2022-12-15T16:54:41.957Z,14.00
2022-12-15T16:57:12.800Z,14.00
2022-12-15T16:59:41.224Z,14.00
2022-12-15T17:02:23.084Z,13.90
2022-12-15T17:04:51.721Z,13.90
2022-12-15T17:07:21.012Z,13.90
2022-12-15T17:09:49.917Z,13.90
2022-12-15T17:12:19.927Z,13.90
2022-12-15T17:14:48.429Z,13.90
2022-12-15T17:17:17.719Z,13.90
2022-12-15T17:20:11.708Z,13.90
2022-12-15T17:22:34.615Z,13.90
2022-12-15T17:25:03.036Z,13.90
2022-12-15T17:27:32.849Z,13.90
2022-12-15T17:30:01.666Z,13.90
2022-12-15T17:32:30.174Z,13.90
2022-12-15T17:34:58.605Z,13.90
2022-12-15T17:37:31.900Z,13.90
2022-12-15T17:40:03.735Z,13.90
2022-12-15T17:42:33.597Z,14.00
2022-12-15T17:45:02.111Z,14.00
2022-12-15T17:47:30.668Z,14.00
2022-12-15T17:49:59.119Z,13.90
2022-12-15T17:52:29.238Z,14.00
2022-12-15T17:54:57.798Z,13.90
2022-12-15T17:57:26.242Z,14.00
2022-12-15T17:59:56.064Z,14.00
2022-12-15T18:02:24.809Z,14.00
2022-12-15T18:04:54.201Z,14.00
2022-12-15T18:07:23.925Z,14.00
2022-12-15T18:09:52.795Z,14.00
2022-12-15T18:12:22.609Z,14.00
2022-12-15T18:14:51.452Z,13.90
2022-12-15T18:17:21.424Z,14.00
2022-12-15T18:19:49.924Z,14.00
2022-12-15T18:22:20.421Z,14.00
2022-12-15T18:24:48.882Z,13.90
2022-12-15T18:27:20.887Z,14.00
2022-12-15T18:29:49.279Z,13.90
2022-12-15T18:32:18.187Z,13.90
2022-12-15T18:34:48.125Z,13.90
2022-12-15T18:37:17.629Z,13.90
2022-12-15T18:39:46.295Z,14.00
2022-12-15T18:42:15.579Z,14.00
2022-12-15T18:44:46.293Z,14.00
2022-12-15T18:47:17.250Z,14.00
2022-12-15T18:49:45.736Z,14.00
2022-12-15T18:52:18.678Z,14.00
2022-12-15T18:54:47.561Z,14.00
2022-12-15T18:57:29.442Z,13.90
2022-12-15T18:59:58.480Z,14.00
2022-12-15T19:02:26.980Z,14.00
2022-12-15T19:04:55.504Z,14.00
2022-12-15T19:07:25.404Z,14.00
2022-12-15T19:09:53.962Z,14.00
2022-12-15T19:12:22.380Z,14.00
2022-12-15T19:14:52.857Z,14.00
2022-12-15T19:17:41.976Z,14.00
2022-12-15T19:20:33.767Z,14.10
2022-12-15T19:23:03.721Z,14.00
2022-12-15T19:25:32.496Z,14.00
2022-12-15T19:28:01.273Z,14.00
2022-12-15T19:30:30.954Z,14.10
2022-12-15T19:32:59.338Z,14.10
2022-12-15T19:35:29.214Z,14.10
2022-12-15T19:37:58.716Z,14.10
2022-12-15T19:40:30.602Z,14.10
2022-12-15T19:43:00.215Z,14.10
2022-12-15T19:45:29.811Z,14.10
2022-12-15T19:47:58.538Z,14.10
2022-12-15T19:50:28.707Z,14.20
2022-12-15T19:52:58.800Z,14.10
2022-12-15T19:55:30.088Z,14.10
2022-12-15T19:57:58.546Z,14.10
2022-12-15T20:00:27.357Z,14.10
2022-12-15T20:02:56.734Z,14.10
2022-12-15T20:05:25.861Z,14.20
2022-12-15T20:07:54.785Z,14.20
2022-12-15T20:10:29.481Z,14.20
2022-12-15T20:13:03.359Z,14.20
2022-12-15T20:15:31.771Z,14.20
2022-12-15T20:18:00.220Z,14.20
2022-12-15T20:20:29.946Z,14.10
2022-12-15T20:22:59.936Z,14.20
2022-12-15T20:25:29.285Z,14.20
2022-12-15T20:27:57.740Z,14.20
2022-12-15T20:30:29.002Z,14.20
2022-12-15T20:32:58.273Z,14.20
2022-12-15T20:35:26.653Z,14.20
2022-12-15T20:37:55.029Z,14.20
2022-12-15T20:40:24.817Z,14.20
2022-12-15T20:42:54.117Z,14.20
2022-12-15T20:45:23.775Z,14.20
2022-12-15T20:47:54.311Z,14.20
2022-12-15T20:50:25.011Z,14.20
2022-12-15T20:52:54.970Z,14.30
2022-12-15T20:55:23.510Z,14.30
2022-12-15T20:57:51.954Z,14.20
2022-12-15T21:00:20.724Z,14.30
2022-12-15T21:02:49.427Z,14.30
2022-12-15T21:05:22.585Z,14.30
2022-12-15T21:07:51.678Z,14.30
2022-12-15T21:10:20.974Z,14.30
2022-12-15T21:12:50.199Z,14.40
2022-12-15T21:15:19.803Z,14.30
2022-12-15T21:17:57.270Z,14.30
2022-12-15T21:20:33.526Z,14.40
2022-12-15T21:23:02.070Z,14.30
2022-12-15T21:25:30.617Z,14.30
2022-12-15T21:27:58.998Z,14.40
2022-12-15T21:30:27.355Z,14.40
2022-12-15T21:32:55.719Z,14.30
2022-12-15T21:35:30.110Z,14.30
2022-12-15T21:38:01.590Z,14.30
2022-12-15T21:40:30.153Z,14.30
2022-12-15T21:42:58.608Z,14.40
2022-12-15T21:45:27.363Z,14.30
2022-12-15T21:48:13.009Z,14.30
2022-12-15T21:50:43.283Z,14.40
2022-12-15T21:53:17.106Z,14.50
2022-12-15T21:55:46.511Z,14.60
2022-12-15T21:58:19.285Z,14.60
2022-12-15T22:00:47.851Z,14.70
2022-12-15T22:03:16.266Z,14.90
2022-12-15T22:05:44.795Z,14.90
2022-12-15T22:08:16.311Z,15.00
2022-12-15T22:10:45.870Z,15.10
2022-12-15T22:13:17.960Z,15.20
2022-12-15T22:15:46.686Z,15.40
2022-12-15T22:18:19.717Z,15.40
2022-12-15T22:20:49.999Z,15.50
2022-12-15T22:23:20.295Z,15.40
2022-12-15T22:25:51.248Z,15.50
2022-12-15T22:28:21.685Z,15.60
2022-12-15T22:30:50.531Z,15.60
2022-12-15T22:33:23.800Z,15.60
2022-12-15T22:35:54.801Z,15.60
2022-12-15T22:38:25.817Z,15.70
2022-12-15T22:40:55.580Z,15.80
2022-12-15T22:43:26.942Z,16.30
2022-12-15T22:45:56.469Z,16.40
2022-12-15T22:48:25.539Z,16.40
2022-12-15T22:50:53.916Z,16.30
2022-12-15T22:53:25.589Z,16.20
2022-12-15T22:55:54.070Z,16.20
2022-12-15T22:58:26.655Z,16.20
2022-12-15T23:00:56.314Z,16.00
2022-12-15T23:03:24.676Z,15.90
2022-12-15T23:05:53.029Z,15.90
2022-12-15T23:08:21.781Z,15.80
2022-12-15T23:11:08.879Z,15.80
2022-12-15T23:13:37.529Z,15.80
2022-12-15T23:16:21.631Z,15.80
2022-12-15T23:18:50.664Z,15.90
2022-12-15T23:21:20.256Z,15.90
2022-12-15T23:23:48.784Z,16.00
2022-12-15T23:26:19.285Z,16.10
2022-12-15T23:28:47.649Z,16.10
2022-12-15T23:31:16.216Z,16.10
2022-12-15T23:33:44.825Z,16.20
2022-12-15T23:36:13.314Z,16.20
2022-12-15T23:38:41.667Z,16.20
2022-12-15T23:41:15.280Z,16.30
2022-12-15T23:43:45.252Z,16.30
2022-12-15T23:46:13.720Z,16.40
2022-12-15T23:48:43.393Z,16.30
2022-12-15T23:51:13.547Z,16.30
2022-12-15T23:53:43.080Z,16.30
2022-12-15T23:56:12.803Z,16.30
2022-12-15T23:58:42.362Z,16.30
